createdAt,value
2022-08-20T00:00:09.332Z,1004.98
2022-08-20T00:01:09.283Z,1004.98
2022-08-20T00:02:09.330Z,1004.99
2022-08-20T00:03:09.437Z,1004.99
2022-08-20T00:04:09.261Z,1004.92
2022-08-20T00:05:09.269Z,1004.93
2022-08-20T00:06:09.284Z,1004.91
2022-08-20T00:07:09.240Z,1004.90
2022-08-20T00:08:09.266Z,1004.90
2022-08-20T00:09:09.232Z,1004.87
2022-08-20T00:10:09.218Z,1004.90
2022-08-20T00:11:09.189Z,1004.88
2022-08-20T00:12:09.162Z,1004.88
2022-08-20T00:13:19.222Z,1004.82
2022-08-20T00:14:20.208Z,1004.87
2022-08-20T00:15:09.144Z,1004.87
2022-08-20T00:16:09.161Z,1004.79
2022-08-20T00:17:09.136Z,1004.81
2022-08-20T00:18:09.112Z,1004.83
2022-08-20T00:19:09.103Z,1004.81
2022-08-20T00:20:09.089Z,1004.80
2022-08-20T00:21:09.080Z,1004.77
2022-08-20T00:22:09.103Z,1004.78
2022-08-20T00:23:10.621Z,1004.77
2022-08-20T00:24:09.069Z,1004.83
2022-08-20T00:25:09.040Z,1004.83
2022-08-20T00:26:09.066Z,1004.79
2022-08-20T00:27:09.022Z,1004.82
2022-08-20T00:28:09.014Z,1004.79
2022-08-20T00:29:09.005Z,1004.77
2022-08-20T00:30:08.986Z,1004.76
2022-08-20T00:31:08.983Z,1004.78
2022-08-20T00:32:08.963Z,1004.81
2022-08-20T00:33:08.963Z,1004.81
2022-08-20T00:34:08.944Z,1004.85
2022-08-20T00:35:08.930Z,1004.84
2022-08-20T00:36:08.922Z,1004.85
2022-08-20T00:37:08.903Z,1004.86
2022-08-20T00:38:08.891Z,1004.84
2022-08-20T00:39:08.890Z,1004.88
2022-08-20T00:40:22.067Z,1004.84
2022-08-20T00:41:09.875Z,1004.85
2022-08-20T00:42:08.853Z,1004.86
2022-08-20T00:43:08.835Z,1004.85
2022-08-20T00:44:08.835Z,1004.86
2022-08-20T00:45:08.822Z,1004.85
2022-08-20T00:46:08.839Z,1004.89
2022-08-20T00:47:08.801Z,1004.88
2022-08-20T00:48:08.817Z,1004.85
2022-08-20T00:49:08.797Z,1004.86
2022-08-20T00:50:08.778Z,1004.88
2022-08-20T00:51:08.768Z,1004.88
2022-08-20T00:52:08.750Z,1004.88
2022-08-20T00:53:08.856Z,1004.88
2022-08-20T00:54:08.717Z,1004.88
2022-08-20T00:55:08.737Z,1004.89
2022-08-20T00:56:08.698Z,1004.91
2022-08-20T00:57:08.695Z,1004.91
2022-08-20T00:58:09.013Z,1004.91
2022-08-20T00:59:08.712Z,1004.93
2022-08-20T01:00:08.653Z,1004.92
2022-08-20T01:01:08.659Z,1004.92
2022-08-20T01:02:08.697Z,1004.92
2022-08-20T01:03:08.667Z,1004.93
2022-08-20T01:04:08.678Z,1004.93
2022-08-20T01:05:08.621Z,1004.98
2022-08-20T01:06:08.590Z,1004.99
2022-08-20T01:07:08.591Z,1005.01
2022-08-20T01:08:08.591Z,1005.02
2022-08-20T01:09:08.573Z,1005.06
2022-08-20T01:10:08.569Z,1005.07
2022-08-20T01:11:08.541Z,1005.06
2022-08-20T01:12:08.526Z,1005.14
2022-08-20T01:13:08.522Z,1005.11
2022-08-20T01:14:08.509Z,1005.15
2022-08-20T01:15:08.505Z,1005.14
2022-08-20T01:16:08.495Z,1005.12
2022-08-20T01:17:08.487Z,1005.14
2022-08-20T01:18:08.453Z,1005.15
2022-08-20T01:19:29.455Z,1005.14
2022-08-20T01:20:09.435Z,1005.20
2022-08-20T01:21:08.436Z,1005.19
2022-08-20T01:22:08.424Z,1005.17
2022-08-20T01:23:08.405Z,1005.19
2022-08-20T01:24:08.459Z,1005.26
2022-08-20T01:25:08.381Z,1005.25
2022-08-20T01:26:08.372Z,1005.25
2022-08-20T01:27:08.383Z,1005.27
2022-08-20T01:28:08.415Z,1005.27
2022-08-20T01:29:08.330Z,1005.26
2022-08-20T01:30:08.312Z,1005.27
2022-08-20T01:31:08.342Z,1005.29
2022-08-20T01:32:08.314Z,1005.30
2022-08-20T01:33:08.296Z,1005.26
2022-08-20T01:34:08.270Z,1005.26
2022-08-20T01:35:08.262Z,1005.28
2022-08-20T01:36:08.272Z,1005.26
2022-08-20T01:37:08.243Z,1005.23
2022-08-20T01:38:08.254Z,1005.23
2022-08-20T01:39:08.221Z,1005.21
2022-08-20T01:40:09.328Z,1005.22
2022-08-20T01:41:08.213Z,1005.19
2022-08-20T01:42:08.204Z,1005.23
2022-08-20T01:43:08.191Z,1005.20
2022-08-20T01:44:11.005Z,1005.25
2022-08-20T01:45:09.166Z,1005.21
2022-08-20T01:46:08.144Z,1005.18
2022-08-20T01:47:08.130Z,1005.19
2022-08-20T01:48:08.131Z,1005.20
2022-08-20T01:49:13.654Z,1005.19
2022-08-20T01:50:09.106Z,1005.20
2022-08-20T01:51:08.099Z,1005.23
2022-08-20T01:52:08.081Z,1005.21
2022-08-20T01:53:08.087Z,1005.21
2022-08-20T01:54:08.077Z,1005.17
2022-08-20T01:55:08.271Z,1005.23
2022-08-20T01:56:08.045Z,1005.22
2022-08-20T01:57:08.041Z,1005.19
2022-08-20T01:58:08.033Z,1005.20
2022-08-20T01:59:08.018Z,1005.22
2022-08-20T02:00:08.004Z,1005.17
2022-08-20T02:01:08.033Z,1005.20
2022-08-20T02:02:07.996Z,1005.23
2022-08-20T02:03:07.988Z,1005.23
2022-08-20T02:04:07.953Z,1005.26
2022-08-20T02:05:08.973Z,1005.23
2022-08-20T02:06:07.940Z,1005.29
2022-08-20T02:07:07.927Z,1005.22
2022-08-20T02:08:07.908Z,1005.20
2022-08-20T02:09:07.934Z,1005.27
2022-08-20T02:10:07.930Z,1005.21
2022-08-20T02:11:07.883Z,1005.22
2022-08-20T02:12:07.867Z,1005.20
2022-08-20T02:13:07.874Z,1005.21
2022-08-20T02:14:07.855Z,1005.22
2022-08-20T02:15:07.865Z,1005.19
2022-08-20T02:16:07.822Z,1005.22
2022-08-20T02:17:07.852Z,1005.18
2022-08-20T02:18:08.273Z,1005.24
2022-08-20T02:19:07.820Z,1005.18
2022-08-20T02:20:07.796Z,1005.21
2022-08-20T02:21:07.805Z,1005.19
2022-08-20T02:22:07.783Z,1005.21
2022-08-20T02:23:07.749Z,1005.18
2022-08-20T02:24:07.767Z,1005.20
2022-08-20T02:25:07.727Z,1005.21
2022-08-20T02:26:07.844Z,1005.17
2022-08-20T02:27:07.739Z,1005.23
2022-08-20T02:28:07.715Z,1005.21
2022-08-20T02:29:07.691Z,1005.19
2022-08-20T02:30:07.683Z,1005.20
2022-08-20T02:31:07.668Z,1005.19
2022-08-20T02:32:32.379Z,1005.14
2022-08-20T02:33:17.649Z,1005.16
2022-08-20T02:34:18.494Z,1005.17
2022-08-20T02:35:10.359Z,1005.16
2022-08-20T02:36:07.630Z,1005.15
2022-08-20T02:37:07.610Z,1005.20
2022-08-20T02:38:07.616Z,1005.24
2022-08-20T02:39:07.572Z,1005.18
2022-08-20T02:40:07.587Z,1005.19
2022-08-20T02:41:07.559Z,1005.15
2022-08-20T02:42:07.556Z,1005.18
2022-08-20T02:43:07.552Z,1005.20
2022-08-20T02:44:07.527Z,1005.18
2022-08-20T02:45:07.535Z,1005.21
2022-08-20T02:46:07.531Z,1005.18
2022-08-20T02:47:07.496Z,1005.22
2022-08-20T02:48:07.514Z,1005.18
2022-08-20T02:49:07.483Z,1005.20
2022-08-20T02:50:07.742Z,1005.19
2022-08-20T02:51:07.451Z,1005.23
2022-08-20T02:52:07.431Z,1005.23
2022-08-20T02:53:07.427Z,1005.20
2022-08-20T02:54:07.418Z,1005.24
2022-08-20T02:55:07.420Z,1005.25
2022-08-20T02:56:07.426Z,1005.23
2022-08-20T02:57:07.615Z,1005.23
2022-08-20T02:58:07.393Z,1005.24
2022-08-20T02:59:07.359Z,1005.27
2022-08-20T03:00:07.366Z,1005.29
2022-08-20T03:01:07.365Z,1005.28
2022-08-20T03:02:07.333Z,1005.34
2022-08-20T03:03:07.329Z,1005.30
2022-08-20T03:04:07.290Z,1005.30
2022-08-20T03:05:07.291Z,1005.28
2022-08-20T03:06:07.319Z,1005.29
2022-08-20T03:07:07.278Z,1005.28
2022-08-20T03:08:07.265Z,1005.23
2022-08-20T03:09:07.271Z,1005.22
2022-08-20T03:10:07.247Z,1005.23
2022-08-20T03:11:07.242Z,1005.21
2022-08-20T03:12:07.222Z,1005.19
2022-08-20T03:13:07.209Z,1005.18
2022-08-20T03:14:07.211Z,1005.19
2022-08-20T03:15:07.197Z,1005.18
2022-08-20T03:16:08.186Z,1005.20
2022-08-20T03:17:07.176Z,1005.18
2022-08-20T03:18:07.176Z,1005.21
2022-08-20T03:19:07.141Z,1005.19
2022-08-20T03:20:07.154Z,1005.23
2022-08-20T03:21:07.148Z,1005.23
2022-08-20T03:22:07.111Z,1005.24
2022-08-20T03:23:07.106Z,1005.29
2022-08-20T03:24:07.087Z,1005.28
2022-08-20T03:25:07.080Z,1005.27
2022-08-20T03:26:07.089Z,1005.28
2022-08-20T03:27:07.066Z,1005.31
2022-08-20T03:28:07.112Z,1005.28
2022-08-20T03:29:07.042Z,1005.29
2022-08-20T03:30:07.029Z,1005.27
2022-08-20T03:31:07.050Z,1005.32
2022-08-20T03:32:07.908Z,1005.28
2022-08-20T03:33:06.992Z,1005.30
2022-08-20T03:34:06.973Z,1005.31
2022-08-20T03:35:06.963Z,1005.33
2022-08-20T03:36:06.959Z,1005.36
2022-08-20T03:37:06.962Z,1005.29
2022-08-20T03:38:06.977Z,1005.39
2022-08-20T03:39:06.918Z,1005.39
2022-08-20T03:40:06.954Z,1005.37
2022-08-20T03:41:06.906Z,1005.43
2022-08-20T03:42:06.887Z,1005.44
2022-08-20T03:43:06.893Z,1005.43
2022-08-20T03:44:06.884Z,1005.44
2022-08-20T03:45:06.841Z,1005.49
2022-08-20T03:46:06.836Z,1005.46
2022-08-20T03:47:07.826Z,1005.43
2022-08-20T03:48:06.833Z,1005.55
2022-08-20T03:49:06.824Z,1005.56
2022-08-20T03:50:06.806Z,1005.55
2022-08-20T03:51:06.786Z,1005.58
2022-08-20T03:52:06.823Z,1005.57
2022-08-20T03:53:06.779Z,1005.53
2022-08-20T03:54:07.758Z,1005.59
2022-08-20T03:55:06.741Z,1005.56
2022-08-20T03:56:06.749Z,1005.56
2022-08-20T03:57:12.324Z,1005.62
2022-08-20T03:58:07.794Z,1005.57
2022-08-20T03:59:06.705Z,1005.62
2022-08-20T04:00:06.723Z,1005.62
2022-08-20T04:01:06.746Z,1005.69
2022-08-20T04:02:06.729Z,1005.68
2022-08-20T04:03:06.685Z,1005.65
2022-08-20T04:04:06.680Z,1005.66
2022-08-20T04:05:07.640Z,1005.68
2022-08-20T04:06:06.639Z,1005.69
2022-08-20T04:07:06.619Z,1005.66
2022-08-20T04:08:06.616Z,1005.66
2022-08-20T04:09:06.611Z,1005.63
2022-08-20T04:10:06.598Z,1005.65
2022-08-20T04:11:06.570Z,1005.62
2022-08-20T04:12:06.570Z,1005.62
2022-08-20T04:13:06.556Z,1005.61
2022-08-20T04:14:06.547Z,1005.65
2022-08-20T04:15:06.528Z,1005.63
2022-08-20T04:16:06.534Z,1005.64
2022-08-20T04:17:06.495Z,1005.62
2022-08-20T04:18:06.482Z,1005.67
2022-08-20T04:19:06.583Z,1005.67
2022-08-20T04:20:06.483Z,1005.64
2022-08-20T04:21:06.459Z,1005.71
2022-08-20T04:22:06.478Z,1005.66
2022-08-20T04:23:06.443Z,1005.65
2022-08-20T04:24:06.434Z,1005.69
2022-08-20T04:25:06.434Z,1005.70
2022-08-20T04:26:06.425Z,1005.67
2022-08-20T04:27:06.423Z,1005.68
2022-08-20T04:28:06.393Z,1005.70
2022-08-20T04:29:06.449Z,1005.72
2022-08-20T04:30:06.360Z,1005.71
2022-08-20T04:31:06.378Z,1005.69
2022-08-20T04:32:06.385Z,1005.72
2022-08-20T04:33:06.338Z,1005.72
2022-08-20T04:34:06.314Z,1005.75
2022-08-20T04:35:06.310Z,1005.70
2022-08-20T04:36:06.566Z,1005.75
2022-08-20T04:37:06.297Z,1005.75
2022-08-20T04:38:07.272Z,1005.74
2022-08-20T04:39:06.285Z,1005.75
2022-08-20T04:40:06.479Z,1005.76
2022-08-20T04:41:06.268Z,1005.73
2022-08-20T04:42:06.268Z,1005.74
2022-08-20T04:43:06.244Z,1005.74
2022-08-20T04:44:06.240Z,1005.73
2022-08-20T04:45:06.217Z,1005.74
2022-08-20T04:46:06.237Z,1005.79
2022-08-20T04:47:06.173Z,1005.78
2022-08-20T04:48:06.174Z,1005.80
2022-08-20T04:49:06.186Z,1005.81
2022-08-20T04:50:06.138Z,1005.80
2022-08-20T04:51:06.172Z,1005.83
2022-08-20T04:52:06.134Z,1005.81
2022-08-20T04:53:06.115Z,1005.83
2022-08-20T04:54:06.136Z,1005.84
2022-08-20T04:55:06.109Z,1005.85
2022-08-20T04:56:07.551Z,1005.85
2022-08-20T04:57:06.120Z,1005.88
2022-08-20T04:58:06.070Z,1005.83
2022-08-20T04:59:06.037Z,1005.93
2022-08-20T05:00:06.335Z,1005.92
2022-08-20T05:01:06.127Z,1005.94
2022-08-20T05:02:06.048Z,1005.94
2022-08-20T05:03:06.107Z,1005.96
2022-08-20T05:04:05.990Z,1005.98
2022-08-20T05:05:06.004Z,1006.00
2022-08-20T05:06:05.979Z,1006.01
2022-08-20T05:07:05.965Z,1005.99
2022-08-20T05:08:05.956Z,1005.99
2022-08-20T05:09:06.975Z,1006.04
2022-08-20T05:10:05.960Z,1006.01
2022-08-20T05:11:30.111Z,1006.03
2022-08-20T05:12:06.945Z,1006.03
2022-08-20T05:13:05.894Z,1006.03
2022-08-20T05:14:05.901Z,1006.01
2022-08-20T05:15:05.924Z,1006.05
2022-08-20T05:16:05.881Z,1006.05
2022-08-20T05:17:05.871Z,1006.04
2022-08-20T05:18:05.841Z,1006.07
2022-08-20T05:19:05.902Z,1006.03
2022-08-20T05:20:05.820Z,1006.03
2022-08-20T05:21:05.813Z,1006.01
2022-08-20T05:22:05.797Z,1005.99
2022-08-20T05:23:05.779Z,1006.00
2022-08-20T05:24:05.801Z,1006.02
2022-08-20T05:25:05.750Z,1005.97
2022-08-20T05:26:05.756Z,1005.98
2022-08-20T05:27:05.738Z,1005.98
2022-08-20T05:28:05.779Z,1005.98
2022-08-20T05:29:05.879Z,1005.99
2022-08-20T05:30:05.731Z,1006.03
2022-08-20T05:31:05.883Z,1006.04
2022-08-20T05:32:05.774Z,1006.05
2022-08-20T05:33:05.712Z,1006.04
2022-08-20T05:34:05.683Z,1006.08
2022-08-20T05:35:05.681Z,1006.09
2022-08-20T05:36:05.654Z,1006.09
2022-08-20T05:37:05.659Z,1006.12
2022-08-20T05:38:05.650Z,1006.11
2022-08-20T05:39:05.611Z,1006.13
2022-08-20T05:40:05.682Z,1006.12
2022-08-20T05:41:05.618Z,1006.17
2022-08-20T05:42:05.620Z,1006.16
2022-08-20T05:43:05.560Z,1006.13
2022-08-20T05:44:05.562Z,1006.18
2022-08-20T05:45:11.177Z,1006.22
2022-08-20T05:46:06.586Z,1006.24
2022-08-20T05:47:05.545Z,1006.23
2022-08-20T05:48:05.546Z,1006.27
2022-08-20T05:49:05.512Z,1006.23
2022-08-20T05:50:05.593Z,1006.21
2022-08-20T05:51:05.505Z,1006.25
2022-08-20T05:52:05.535Z,1006.27
2022-08-20T05:53:05.507Z,1006.23
2022-08-20T05:54:05.574Z,1006.28
2022-08-20T05:55:05.443Z,1006.24
2022-08-20T05:56:05.440Z,1006.23
2022-08-20T05:57:05.420Z,1006.20
2022-08-20T05:58:05.428Z,1006.23
2022-08-20T05:59:05.413Z,1006.27
2022-08-20T06:00:05.603Z,1006.25
2022-08-20T06:01:05.473Z,1006.28
2022-08-20T06:02:06.580Z,1006.26
2022-08-20T06:03:05.352Z,1006.28
2022-08-20T06:04:05.356Z,1006.24
2022-08-20T06:05:05.386Z,1006.24
2022-08-20T06:06:05.407Z,1006.23
2022-08-20T06:07:06.305Z,1006.23
2022-08-20T06:08:07.707Z,1006.23
2022-08-20T06:09:05.304Z,1006.22
2022-08-20T06:10:05.265Z,1006.25
2022-08-20T06:11:05.333Z,1006.22
2022-08-20T06:12:05.287Z,1006.21
2022-08-20T06:13:05.270Z,1006.20
2022-08-20T06:14:05.396Z,1006.17
2022-08-20T06:15:05.270Z,1006.19
2022-08-20T06:16:06.947Z,1006.20
2022-08-20T06:17:05.281Z,1006.14
2022-08-20T06:18:09.985Z,1006.19
2022-08-20T06:19:06.198Z,1006.22
2022-08-20T06:20:06.175Z,1006.22
2022-08-20T06:21:05.152Z,1006.24
2022-08-20T06:22:18.095Z,1006.23
2022-08-20T06:23:06.133Z,1006.22
2022-08-20T06:24:05.272Z,1006.20
2022-08-20T06:25:05.117Z,1006.23
2022-08-20T06:26:05.098Z,1006.25
2022-08-20T06:27:05.108Z,1006.19
2022-08-20T06:28:05.082Z,1006.22
2022-08-20T06:29:05.086Z,1006.21
2022-08-20T06:30:05.082Z,1006.24
2022-08-20T06:31:05.048Z,1006.23
2022-08-20T06:32:05.040Z,1006.23
2022-08-20T06:33:05.361Z,1006.24
2022-08-20T06:34:05.022Z,1006.22
2022-08-20T06:35:05.024Z,1006.23
2022-08-20T06:36:05.078Z,1006.22
2022-08-20T06:37:04.970Z,1006.25
2022-08-20T06:38:05.011Z,1006.17
2022-08-20T06:39:04.965Z,1006.23
2022-08-20T06:40:05.018Z,1006.26
2022-08-20T06:41:04.969Z,1006.19
2022-08-20T06:42:04.938Z,1006.23
2022-08-20T06:43:04.922Z,1006.19
2022-08-20T06:44:04.965Z,1006.22
2022-08-20T06:45:04.936Z,1006.24
2022-08-20T06:46:04.904Z,1006.26
2022-08-20T06:47:04.917Z,1006.26
2022-08-20T06:48:04.843Z,1006.26
2022-08-20T06:49:04.848Z,1006.25
2022-08-20T06:50:04.960Z,1006.27
2022-08-20T06:51:05.028Z,1006.27
2022-08-20T06:52:04.832Z,1006.28
2022-08-20T06:53:05.012Z,1006.23
2022-08-20T06:54:04.927Z,1006.22
2022-08-20T06:55:04.780Z,1006.26
2022-08-20T06:56:04.927Z,1006.23
2022-08-20T06:57:05.361Z,1006.27
2022-08-20T06:58:04.752Z,1006.25
2022-08-20T06:59:04.750Z,1006.32
2022-08-20T07:00:04.795Z,1006.28
2022-08-20T07:01:10.260Z,1006.27
2022-08-20T07:02:05.855Z,1006.33
2022-08-20T07:03:04.868Z,1006.28
2022-08-20T07:04:05.518Z,1006.34
2022-08-20T07:05:04.857Z,1006.26
2022-08-20T07:06:04.667Z,1006.27
2022-08-20T07:07:04.658Z,1006.25
2022-08-20T07:08:04.650Z,1006.26
2022-08-20T07:09:04.626Z,1006.28
2022-08-20T07:10:04.827Z,1006.26
2022-08-20T07:11:04.889Z,1006.30
2022-08-20T07:12:04.613Z,1006.27
2022-08-20T07:13:04.584Z,1006.31
2022-08-20T07:14:04.611Z,1006.31
2022-08-20T07:15:04.582Z,1006.36
2022-08-20T07:16:04.563Z,1006.38
2022-08-20T07:17:04.539Z,1006.39
2022-08-20T07:18:05.533Z,1006.41
2022-08-20T07:19:04.527Z,1006.41
2022-08-20T07:20:04.638Z,1006.42
2022-08-20T07:21:04.796Z,1006.42
2022-08-20T07:22:05.212Z,1006.44
2022-08-20T07:23:04.495Z,1006.44
2022-08-20T07:24:04.477Z,1006.46
2022-08-20T07:25:04.601Z,1006.49
2022-08-20T07:26:04.445Z,1006.49
2022-08-20T07:27:04.435Z,1006.51
2022-08-20T07:28:04.417Z,1006.49
2022-08-20T07:29:04.417Z,1006.52
2022-08-20T07:30:04.458Z,1006.51
2022-08-20T07:31:13.211Z,1006.52
2022-08-20T07:32:05.368Z,1006.50
2022-08-20T07:33:04.387Z,1006.52
2022-08-20T07:34:04.342Z,1006.52
2022-08-20T07:35:06.485Z,1006.53
2022-08-20T07:36:04.338Z,1006.52
2022-08-20T07:37:04.342Z,1006.52
2022-08-20T07:38:04.308Z,1006.49
2022-08-20T07:39:05.713Z,1006.52
2022-08-20T07:40:04.393Z,1006.51
2022-08-20T07:41:04.350Z,1006.49
2022-08-20T07:42:04.261Z,1006.53
2022-08-20T07:43:04.273Z,1006.57
2022-08-20T07:44:04.940Z,1006.54
2022-08-20T07:45:04.285Z,1006.58
2022-08-20T07:46:04.236Z,1006.65
2022-08-20T07:47:04.277Z,1006.60
2022-08-20T07:48:04.217Z,1006.66
2022-08-20T07:49:04.310Z,1006.67
2022-08-20T07:50:04.534Z,1006.64
2022-08-20T07:51:04.171Z,1006.67
2022-08-20T07:52:04.268Z,1006.66
2022-08-20T07:53:04.143Z,1006.67
2022-08-20T07:54:04.130Z,1006.71
2022-08-20T07:55:04.131Z,1006.69
2022-08-20T07:56:04.112Z,1006.73
2022-08-20T07:57:04.349Z,1006.70
2022-08-20T07:58:04.104Z,1006.63
2022-08-20T07:59:04.090Z,1006.61
2022-08-20T08:00:04.087Z,1006.61
2022-08-20T08:01:04.229Z,1006.65
2022-08-20T08:02:04.048Z,1006.67
2022-08-20T08:03:04.024Z,1006.61
2022-08-20T08:04:04.383Z,1006.65
2022-08-20T08:05:04.037Z,1006.60
2022-08-20T08:06:04.341Z,1006.61
2022-08-20T08:07:04.014Z,1006.63
2022-08-20T08:08:07.226Z,1006.66
2022-08-20T08:09:03.997Z,1006.68
2022-08-20T08:10:03.974Z,1006.60
2022-08-20T08:11:03.948Z,1006.63
2022-08-20T08:12:03.935Z,1006.69
2022-08-20T08:13:03.920Z,1006.72
2022-08-20T08:14:04.019Z,1006.71
2022-08-20T08:15:04.029Z,1006.69
2022-08-20T08:16:04.065Z,1006.72
2022-08-20T08:17:03.910Z,1006.75
2022-08-20T08:18:03.886Z,1006.74
2022-08-20T08:19:03.847Z,1006.73
2022-08-20T08:20:04.022Z,1006.70
2022-08-20T08:21:03.854Z,1006.74
2022-08-20T08:22:04.012Z,1006.75
2022-08-20T08:23:03.842Z,1006.69
2022-08-20T08:24:03.815Z,1006.74
2022-08-20T08:25:03.818Z,1006.68
2022-08-20T08:26:04.188Z,1006.72
2022-08-20T08:27:03.871Z,1006.68
2022-08-20T08:28:03.757Z,1006.74
2022-08-20T08:29:03.765Z,1006.70
2022-08-20T08:30:03.755Z,1006.68
2022-08-20T08:31:03.763Z,1006.72
2022-08-20T08:32:03.716Z,1006.71
2022-08-20T08:33:03.742Z,1006.70
2022-08-20T08:34:03.703Z,1006.69
2022-08-20T08:35:03.781Z,1006.69
2022-08-20T08:36:03.687Z,1006.75
2022-08-20T08:37:03.729Z,1006.76
2022-08-20T08:38:03.679Z,1006.75
2022-08-20T08:39:03.647Z,1006.74
2022-08-20T08:40:04.653Z,1006.76
2022-08-20T08:41:03.637Z,1006.77
2022-08-20T08:42:03.612Z,1006.80
2022-08-20T08:43:03.600Z,1006.72
2022-08-20T08:44:03.646Z,1006.76
2022-08-20T08:45:03.567Z,1006.81
2022-08-20T08:46:03.573Z,1006.80
2022-08-20T08:47:03.634Z,1006.78
2022-08-20T08:48:03.540Z,1006.82
2022-08-20T08:49:03.586Z,1006.79
2022-08-20T08:50:03.950Z,1006.80
2022-08-20T08:51:03.548Z,1006.84
2022-08-20T08:52:03.534Z,1006.77
2022-08-20T08:53:03.516Z,1006.73
2022-08-20T08:54:06.865Z,1006.69
2022-08-20T08:55:03.487Z,1006.70
2022-08-20T08:56:03.594Z,1006.73
2022-08-20T08:57:03.575Z,1006.74
2022-08-20T08:58:04.316Z,1006.77
2022-08-20T08:59:04.424Z,1006.78
2022-08-20T09:00:05.207Z,1006.81
2022-08-20T09:01:06.845Z,1006.88
2022-08-20T09:02:04.427Z,1006.88
2022-08-20T09:03:03.395Z,1006.94
2022-08-20T09:04:03.386Z,1006.93
2022-08-20T09:05:03.349Z,1006.96
2022-08-20T09:06:03.406Z,1006.93
2022-08-20T09:07:03.360Z,1006.98
2022-08-20T09:08:03.608Z,1006.96
2022-08-20T09:09:03.378Z,1006.99
2022-08-20T09:10:03.414Z,1006.99
2022-08-20T09:11:03.365Z,1007.01
2022-08-20T09:12:03.280Z,1007.02
2022-08-20T09:13:03.282Z,1007.03
2022-08-20T09:14:03.265Z,1007.07
2022-08-20T09:15:03.244Z,1007.02
2022-08-20T09:16:03.245Z,1007.06
2022-08-20T09:17:03.932Z,1007.05
2022-08-20T09:18:03.223Z,1007.12
2022-08-20T09:19:03.445Z,1007.07
2022-08-20T09:20:03.209Z,1007.13
2022-08-20T09:21:03.196Z,1007.10
2022-08-20T09:22:03.168Z,1006.97
2022-08-20T09:23:03.172Z,1007.01
2022-08-20T09:24:03.185Z,1007.02
2022-08-20T09:25:03.176Z,1007.02
2022-08-20T09:26:03.287Z,1007.04
2022-08-20T09:27:03.223Z,1007.03
2022-08-20T09:28:03.788Z,1007.03
2022-08-20T09:29:03.105Z,1007.04
2022-08-20T09:30:03.101Z,1006.99
2022-08-20T09:31:03.336Z,1006.96
2022-08-20T09:32:03.067Z,1007.01
2022-08-20T09:33:03.432Z,1007.03
2022-08-20T09:34:03.120Z,1007.00
2022-08-20T09:35:06.587Z,1007.03
2022-08-20T09:36:04.015Z,1007.03
2022-08-20T09:37:04.021Z,1007.03
2022-08-20T09:38:03.060Z,1007.00
2022-08-20T09:39:03.593Z,1007.04
2022-08-20T09:40:03.256Z,1007.07
2022-08-20T09:41:03.068Z,1007.06
2022-08-20T09:42:02.958Z,1007.08
2022-08-20T09:43:02.956Z,1007.08
2022-08-20T09:44:03.027Z,1007.13
2022-08-20T09:45:02.943Z,1007.12
2022-08-20T09:46:02.914Z,1007.14
2022-08-20T09:47:02.904Z,1007.14
2022-08-20T09:48:02.981Z,1007.14
2022-08-20T09:49:02.948Z,1007.16
2022-08-20T09:50:02.993Z,1007.13
2022-08-20T09:51:02.990Z,1007.15
2022-08-20T09:52:02.992Z,1007.17
2022-08-20T09:53:02.947Z,1007.17
2022-08-20T09:54:02.918Z,1007.18
2022-08-20T09:55:02.821Z,1007.12
2022-08-20T09:56:02.829Z,1007.17
2022-08-20T09:57:02.790Z,1007.11
2022-08-20T09:58:02.993Z,1007.12
2022-08-20T09:59:03.180Z,1007.19
2022-08-20T10:00:02.772Z,1007.17
2022-08-20T10:01:03.001Z,1007.15
2022-08-20T10:02:03.036Z,1007.13
2022-08-20T10:03:02.737Z,1007.11
2022-08-20T10:04:02.712Z,1007.10
2022-08-20T10:05:02.695Z,1007.10
2022-08-20T10:06:02.716Z,1007.08
2022-08-20T10:07:03.565Z,1007.03
2022-08-20T10:08:03.060Z,1007.03
2022-08-20T10:09:02.676Z,1007.02
2022-08-20T10:10:02.885Z,1007.08
2022-08-20T10:11:02.771Z,1007.04
2022-08-20T10:12:02.687Z,1007.03
2022-08-20T10:13:02.662Z,1007.09
2022-08-20T10:14:02.613Z,1007.06
2022-08-20T10:15:02.761Z,1007.11
2022-08-20T10:16:02.717Z,1007.17
2022-08-20T10:17:02.764Z,1007.17
2022-08-20T10:18:02.819Z,1007.20
2022-08-20T10:19:02.807Z,1007.18
2022-08-20T10:20:02.933Z,1007.10
2022-08-20T10:21:02.977Z,1007.11
2022-08-20T10:22:02.563Z,1007.10
2022-08-20T10:23:02.549Z,1007.07
2022-08-20T10:24:02.503Z,1007.04
2022-08-20T10:25:02.501Z,1007.04
2022-08-20T10:26:02.479Z,1007.03
2022-08-20T10:27:02.474Z,1007.02
2022-08-20T10:28:02.469Z,1007.03
2022-08-20T10:29:02.455Z,1007.04
2022-08-20T10:30:02.518Z,1007.03
2022-08-20T10:31:02.422Z,1007.07
2022-08-20T10:32:02.419Z,1007.03
2022-08-20T10:33:02.471Z,1007.00
2022-08-20T10:34:02.497Z,1006.98
2022-08-20T10:35:02.488Z,1006.95
2022-08-20T10:36:02.479Z,1006.97
2022-08-20T10:37:02.420Z,1006.97
2022-08-20T10:38:02.349Z,1007.01
2022-08-20T10:39:02.341Z,1006.98
2022-08-20T10:40:02.451Z,1007.00
2022-08-20T10:41:02.355Z,1006.99
2022-08-20T10:42:02.305Z,1007.02
2022-08-20T10:43:02.291Z,1006.97
2022-08-20T10:44:02.498Z,1006.99
2022-08-20T10:45:02.283Z,1006.96
2022-08-20T10:46:02.250Z,1006.93
2022-08-20T10:47:02.250Z,1006.97
2022-08-20T10:48:02.231Z,1006.95
2022-08-20T10:49:02.237Z,1006.96
2022-08-20T10:50:02.400Z,1006.89
2022-08-20T10:51:02.225Z,1006.94
2022-08-20T10:52:02.321Z,1006.95
2022-08-20T10:53:02.277Z,1007.01
2022-08-20T10:54:02.189Z,1006.96
2022-08-20T10:55:02.290Z,1006.96
2022-08-20T10:56:02.170Z,1006.96
2022-08-20T10:57:02.136Z,1006.88
2022-08-20T10:58:02.126Z,1006.94
2022-08-20T10:59:02.113Z,1006.95
2022-08-20T11:00:02.125Z,1006.91
2022-08-20T11:01:02.101Z,1006.94
2022-08-20T11:02:02.171Z,1006.99
2022-08-20T11:03:02.315Z,1007.00
2022-08-20T11:04:02.086Z,1006.97
2022-08-20T11:05:02.066Z,1006.97
2022-08-20T11:06:02.136Z,1006.97
2022-08-20T11:07:02.053Z,1007.06
2022-08-20T11:08:02.444Z,1007.03
2022-08-20T11:09:02.035Z,1006.99
2022-08-20T11:10:03.956Z,1007.05
2022-08-20T11:11:02.001Z,1007.02
2022-08-20T11:12:02.360Z,1007.02
2022-08-20T11:13:01.973Z,1007.03
2022-08-20T11:14:01.954Z,1006.97
2022-08-20T11:15:02.001Z,1006.99
2022-08-20T11:16:02.345Z,1006.96
2022-08-20T11:17:02.366Z,1006.96
2022-08-20T11:18:01.926Z,1006.95
2022-08-20T11:19:01.910Z,1006.98
2022-08-20T11:20:02.003Z,1006.97
2022-08-20T11:21:01.995Z,1007.00
2022-08-20T11:22:01.900Z,1007.00
2022-08-20T11:23:01.930Z,1006.99
2022-08-20T11:24:03.050Z,1007.01
2022-08-20T11:25:01.838Z,1007.01
2022-08-20T11:26:01.826Z,1007.00
2022-08-20T11:27:01.825Z,1007.03
2022-08-20T11:28:01.837Z,1006.96
2022-08-20T11:29:01.823Z,1007.00
2022-08-20T11:30:01.783Z,1007.07
2022-08-20T11:31:01.913Z,1007.04
2022-08-20T11:32:01.817Z,1007.06
2022-08-20T11:33:02.385Z,1007.04
2022-08-20T11:34:01.909Z,1007.09
2022-08-20T11:35:13.786Z,1007.11
2022-08-20T11:36:02.717Z,1007.09
2022-08-20T11:37:01.725Z,1007.10
2022-08-20T11:38:01.687Z,1007.06
2022-08-20T11:39:01.708Z,1007.10
2022-08-20T11:40:01.766Z,1007.10
2022-08-20T11:41:01.680Z,1007.11
2022-08-20T11:42:01.681Z,1007.16
2022-08-20T11:43:17.947Z,1007.14
2022-08-20T11:44:20.088Z,1007.07
2022-08-20T11:45:02.649Z,1007.09
2022-08-20T11:46:01.988Z,1007.07
2022-08-20T11:47:01.627Z,1007.06
2022-08-20T11:48:02.419Z,1007.08
2022-08-20T11:49:02.039Z,1007.07
2022-08-20T11:50:01.651Z,1007.07
2022-08-20T11:51:01.606Z,1007.07
2022-08-20T11:52:01.653Z,1007.07
2022-08-20T11:53:01.876Z,1007.10
2022-08-20T11:54:01.760Z,1007.04
2022-08-20T11:55:01.586Z,1007.06
2022-08-20T11:56:01.839Z,1007.05
2022-08-20T11:57:01.493Z,1007.05
2022-08-20T11:58:01.566Z,1007.04
2022-08-20T11:59:01.491Z,1007.07
2022-08-20T12:00:01.471Z,1006.99
2022-08-20T12:01:01.492Z,1006.94
2022-08-20T12:02:03.315Z,1006.94
2022-08-20T12:03:01.512Z,1006.93
2022-08-20T12:04:01.429Z,1006.96
2022-08-20T12:05:01.457Z,1007.02